createdAt,value
2018-11-25T00:00:21.988Z,21.90
2018-11-25T00:02:50.482Z,23.83
2018-11-25T00:05:18.946Z,22.77
2018-11-25T00:07:47.422Z,23.73
2018-11-25T00:10:15.928Z,23.90
2018-11-25T00:12:44.402Z,23.83
2018-11-25T00:15:12.905Z,24.60
2018-11-25T00:17:41.366Z,25.33
2018-11-25T00:20:11.763Z,27.40
2018-11-25T00:22:41.991Z,27.50
2018-11-25T00:25:14.693Z,26.43
2018-11-25T00:27:43.181Z,27.40
2018-11-25T00:30:13.494Z,27.13
2018-11-25T00:32:42.120Z,28.00
2018-11-25T00:35:11.758Z,28.00
2018-11-25T00:37:43.428Z,26.73
2018-11-25T00:40:12.281Z,27.50
2018-11-25T00:42:40.760Z,25.17
2018-11-25T00:45:14.415Z,27.23
2018-11-25T00:47:42.870Z,27.20
2018-11-25T00:50:12.723Z,29.67
2018-11-25T00:52:41.551Z,28.70
2018-11-25T00:55:12.006Z,27.83
2018-11-25T00:57:40.520Z,26.27
2018-11-25T01:00:11.023Z,27.10
2018-11-25T01:02:39.539Z,27.20
2018-11-25T01:05:10.617Z,28.07
2018-11-25T01:07:39.535Z,27.80
2018-11-25T01:10:12.977Z,27.90
2018-11-25T01:12:55.867Z,26.07
2018-11-25T01:15:24.347Z,25.57
2018-11-25T01:17:52.797Z,26.83
2018-11-25T01:20:21.838Z,26.93
2018-11-25T01:22:50.299Z,27.57
2018-11-25T01:25:18.771Z,26.47
2018-11-25T01:27:47.228Z,26.27
2018-11-25T01:30:16.383Z,26.07
2018-11-25T01:32:44.866Z,25.87
2018-11-25T01:35:13.647Z,26.47
2018-11-25T01:37:42.251Z,27.87
2018-11-25T01:40:11.927Z,26.23
2018-11-25T01:42:40.376Z,27.23
2018-11-25T01:45:10.479Z,26.00
2018-11-25T01:47:38.977Z,26.17
2018-11-25T01:50:09.132Z,28.70
2018-11-25T01:52:38.178Z,28.37
2018-11-25T01:55:11.488Z,27.67
2018-11-25T01:57:39.947Z,26.37
2018-11-25T02:00:12.489Z,26.00
2018-11-25T02:02:40.922Z,27.23
2018-11-25T02:05:09.459Z,28.77
2018-11-25T02:07:37.903Z,30.00
2018-11-25T02:10:09.586Z,27.23
2018-11-25T02:12:38.045Z,28.87
2018-11-25T02:15:08.590Z,30.27
2018-11-25T02:17:37.035Z,29.87
2018-11-25T02:20:12.138Z,29.90
2018-11-25T02:22:40.942Z,28.37
2018-11-25T02:25:09.459Z,29.13
2018-11-25T02:27:37.896Z,31.13
2018-11-25T02:30:08.990Z,29.90
2018-11-25T02:32:37.459Z,28.53
2018-11-25T02:35:07.854Z,28.37
2018-11-25T02:37:36.322Z,27.90
2018-11-25T02:40:06.506Z,28.40
2018-11-25T02:42:34.959Z,28.40
2018-11-25T02:45:03.790Z,29.23
2018-11-25T02:47:32.231Z,29.37
2018-11-25T02:50:00.694Z,28.37
2018-11-25T02:52:29.187Z,29.50
2018-11-25T02:54:57.645Z,29.33
2018-11-25T02:57:26.103Z,28.63
2018-11-25T02:59:54.587Z,29.23
2018-11-25T03:02:23.040Z,30.50
2018-11-25T03:04:51.484Z,30.10
2018-11-25T03:07:19.959Z,30.43
2018-11-25T03:09:48.418Z,31.87
2018-11-25T03:12:16.895Z,30.77
2018-11-25T03:14:45.351Z,31.67
2018-11-25T03:17:13.838Z,30.77
2018-11-25T03:19:42.327Z,30.83
2018-11-25T03:22:10.796Z,31.30
2018-11-25T03:24:39.235Z,32.47
2018-11-25T03:27:07.705Z,30.57
2018-11-25T03:29:36.171Z,30.33
2018-11-25T03:32:05.554Z,31.40
2018-11-25T03:34:34.490Z,33.10
2018-11-25T03:37:02.952Z,31.80
2018-11-25T03:39:31.405Z,31.20
2018-11-25T03:41:59.943Z,31.00
2018-11-25T03:44:28.412Z,31.43
2018-11-25T03:46:56.879Z,32.23
2018-11-25T03:49:25.346Z,31.83
2018-11-25T03:51:53.828Z,32.67
2018-11-25T03:54:22.325Z,31.20
2018-11-25T03:57:05.778Z,30.27
2018-11-25T03:59:34.238Z,30.90
2018-11-25T04:02:02.711Z,29.10
2018-11-25T04:04:31.180Z,29.53
2018-11-25T04:06:59.672Z,29.97
2018-11-25T04:09:28.114Z,31.50
2018-11-25T04:11:56.602Z,29.60
2018-11-25T04:14:25.050Z,27.70
2018-11-25T04:16:53.531Z,28.07
2018-11-25T04:19:21.987Z,28.93
2018-11-25T04:21:50.463Z,27.47
2018-11-25T04:24:18.935Z,28.17
2018-11-25T04:26:47.403Z,31.07
2018-11-25T04:29:15.856Z,28.77
2018-11-25T04:31:44.327Z,27.30
2018-11-25T04:34:12.770Z,29.70
2018-11-25T04:36:41.225Z,28.20
2018-11-25T04:39:09.963Z,28.30
2018-11-25T04:41:38.435Z,28.87
2018-11-25T04:44:07.266Z,28.37
2018-11-25T04:46:35.767Z,30.03
2018-11-25T04:49:04.246Z,29.73
2018-11-25T04:51:32.729Z,29.77
2018-11-25T04:54:01.195Z,29.90
2018-11-25T04:56:29.678Z,30.90
2018-11-25T04:58:58.122Z,31.90
2018-11-25T05:01:26.601Z,33.07
2018-11-25T05:03:55.056Z,30.87
2018-11-25T05:06:23.566Z,31.30
2018-11-25T05:08:52.036Z,29.70
2018-11-25T05:11:20.501Z,27.40
2018-11-25T05:13:48.954Z,31.10
2018-11-25T05:16:17.419Z,31.70
2018-11-25T05:18:45.892Z,31.63
2018-11-25T05:21:14.344Z,30.37
2018-11-25T05:23:42.835Z,28.70
2018-11-25T05:26:11.275Z,31.33
2018-11-25T05:28:39.747Z,29.47
2018-11-25T05:31:08.222Z,29.80
2018-11-25T05:33:36.694Z,29.00
2018-11-25T05:36:05.307Z,29.27
2018-11-25T05:38:33.781Z,30.90
2018-11-25T05:41:02.252Z,30.20
2018-11-25T05:43:30.727Z,30.60
2018-11-25T05:45:59.183Z,31.03
2018-11-25T05:48:27.647Z,33.17
2018-11-25T05:50:56.087Z,33.07
2018-11-25T05:53:24.579Z,32.63
2018-11-25T05:55:53.255Z,33.70
2018-11-25T05:58:21.722Z,32.97
2018-11-25T06:00:50.187Z,34.43
2018-11-25T06:03:18.674Z,35.40
2018-11-25T06:05:47.131Z,34.20
2018-11-25T06:08:15.594Z,33.57
2018-11-25T06:10:44.057Z,34.90
2018-11-25T06:13:12.512Z,37.27
2018-11-25T06:15:40.990Z,33.73
2018-11-25T06:18:09.463Z,33.70
2018-11-25T06:20:37.897Z,34.37
2018-11-25T06:23:06.399Z,36.33
2018-11-25T06:25:34.838Z,35.87
2018-11-25T06:28:03.333Z,37.40
2018-11-25T06:30:31.796Z,36.13
2018-11-25T06:33:00.269Z,35.10
2018-11-25T06:35:28.740Z,35.13
2018-11-25T06:37:57.223Z,35.43
2018-11-25T06:40:25.666Z,33.63
2018-11-25T06:42:54.145Z,33.80
2018-11-25T06:45:23.966Z,34.73
2018-11-25T06:47:52.871Z,33.50
2018-11-25T06:50:21.389Z,34.07
2018-11-25T06:52:49.861Z,31.93
2018-11-25T06:55:18.355Z,32.07
2018-11-25T06:57:46.826Z,33.07
2018-11-25T07:00:17.383Z,31.60
2018-11-25T07:02:45.892Z,31.53
2018-11-25T07:05:14.487Z,32.57
2018-11-25T07:07:43.309Z,33.03
2018-11-25T07:10:15.663Z,31.40
2018-11-25T07:12:44.206Z,34.27
2018-11-25T07:15:13.656Z,33.47
2018-11-25T07:17:42.115Z,31.40
2018-11-25T07:20:12.035Z,31.13
2018-11-25T07:22:40.874Z,29.47
2018-11-25T07:25:11.429Z,30.10
2018-11-25T07:27:39.890Z,31.03
2018-11-25T07:30:14.004Z,32.10
2018-11-25T07:32:42.451Z,30.57
2018-11-25T07:35:10.935Z,31.30
2018-11-25T07:37:39.444Z,32.30
2018-11-25T07:40:13.195Z,33.97
2018-11-25T07:42:41.698Z,34.20
2018-11-25T07:45:11.292Z,36.87
2018-11-25T07:47:40.095Z,34.17
2018-11-25T07:50:10.947Z,31.27
2018-11-25T07:52:39.930Z,29.90
2018-11-25T07:55:11.015Z,30.77
2018-11-25T07:57:40.533Z,32.10
2018-11-25T08:00:17.196Z,31.73
2018-11-25T08:02:46.051Z,28.47
2018-11-25T08:05:16.647Z,29.87
2018-11-25T08:07:45.096Z,29.63
2018-11-25T08:10:14.420Z,30.63
2018-11-25T08:12:42.988Z,30.97
2018-11-25T08:15:13.412Z,30.13
2018-11-25T08:17:41.911Z,29.83
2018-11-25T08:20:11.386Z,29.17
2018-11-25T08:22:40.195Z,27.37
2018-11-25T08:25:09.783Z,29.67
2018-11-25T08:27:38.590Z,28.03
2018-11-25T08:30:10.546Z,29.10
2018-11-25T08:32:39.002Z,27.57
2018-11-25T08:35:08.410Z,27.37
2018-11-25T08:37:36.883Z,25.67
2018-11-25T08:40:13.806Z,29.47
2018-11-25T08:42:42.490Z,28.90
2018-11-25T08:45:12.723Z,26.57
2018-11-25T08:47:41.180Z,26.23
2018-11-25T08:50:11.618Z,26.07
2018-11-25T08:52:40.171Z,27.63
2018-11-25T08:55:12.086Z,26.80
2018-11-25T08:57:40.547Z,27.57
2018-11-25T09:00:15.437Z,26.33
2018-11-25T09:02:43.958Z,27.00
2018-11-25T09:05:13.648Z,26.07
2018-11-25T09:07:42.115Z,25.67
2018-11-25T09:10:15.700Z,24.17
2018-11-25T09:12:44.722Z,26.23
2018-11-25T09:15:14.742Z,24.50
2018-11-25T09:17:43.248Z,24.13
2018-11-25T09:20:14.630Z,25.07
2018-11-25T09:22:43.160Z,26.87
2018-11-25T09:25:29.130Z,27.17
2018-11-25T09:27:58.297Z,26.33
2018-11-25T09:30:27.760Z,25.83
2018-11-25T09:32:56.222Z,29.40
2018-11-25T09:35:25.280Z,27.03
2018-11-25T09:37:53.747Z,29.00
2018-11-25T09:40:24.979Z,27.10
2018-11-25T09:42:53.800Z,25.57
2018-11-25T09:45:22.346Z,26.83
2018-11-25T09:47:51.090Z,27.57
2018-11-25T09:50:20.764Z,27.17
2018-11-25T09:52:49.227Z,25.90
2018-11-25T09:55:20.688Z,25.33
2018-11-25T09:57:52.351Z,25.60
2018-11-25T10:00:24.778Z,25.77
2018-11-25T10:02:53.298Z,24.90
2018-11-25T10:05:21.775Z,24.07
2018-11-25T10:07:50.251Z,24.30
2018-11-25T10:10:19.668Z,22.67
2018-11-25T10:12:48.156Z,24.87
2018-11-25T10:15:17.692Z,22.97
2018-11-25T10:17:46.158Z,23.00
2018-11-25T10:20:17.490Z,27.97
2018-11-25T10:22:45.970Z,25.63
2018-11-25T10:25:15.439Z,25.70
2018-11-25T10:27:43.908Z,25.80
2018-11-25T10:30:14.470Z,24.00
2018-11-25T10:32:43.039Z,24.40
2018-11-25T10:35:11.536Z,24.43
2018-11-25T10:37:40.023Z,27.07
2018-11-25T10:40:13.447Z,28.50
2018-11-25T10:42:41.943Z,27.43
2018-11-25T10:45:15.635Z,26.47
2018-11-25T10:47:44.122Z,26.40
2018-11-25T10:50:14.430Z,27.37
2018-11-25T10:52:43.279Z,26.97
2018-11-25T10:55:13.522Z,27.57
2018-11-25T10:57:43.186Z,27.13
2018-11-25T11:00:21.750Z,25.60
2018-11-25T11:02:55.731Z,29.00
2018-11-25T11:05:29.720Z,28.47
2018-11-25T11:07:58.231Z,27.30
2018-11-25T11:10:26.726Z,26.23
2018-11-25T11:12:55.178Z,26.90
2018-11-25T11:15:23.655Z,23.90
2018-11-25T11:17:52.090Z,23.20
2018-11-25T11:20:20.555Z,23.40
2018-11-25T11:22:49.058Z,24.70
2018-11-25T11:25:17.507Z,25.37
2018-11-25T11:27:45.972Z,25.50
2018-11-25T11:30:14.420Z,25.13
2018-11-25T11:32:44.236Z,24.87
2018-11-25T11:35:12.775Z,25.13
2018-11-25T11:37:41.258Z,24.97
2018-11-25T11:40:13.663Z,26.23
2018-11-25T11:42:42.152Z,27.43
2018-11-25T11:45:13.819Z,25.87
2018-11-25T11:47:42.930Z,24.60
2018-11-25T11:50:17.434Z,26.73
2018-11-25T11:52:45.911Z,25.97
2018-11-25T11:55:15.366Z,27.67
2018-11-25T11:57:44.833Z,26.33
2018-11-25T12:00:31.167Z,25.57
2018-11-25T12:03:00.231Z,25.70
2018-11-25T12:05:28.747Z,26.27
2018-11-25T12:07:57.250Z,27.17
2018-11-25T12:10:25.722Z,27.43
2018-11-25T12:12:54.204Z,37.53
2018-11-25T12:15:30.347Z,27.87
2018-11-25T12:17:53.702Z,28.37
2018-11-25T12:20:22.775Z,26.83
2018-11-25T12:22:52.136Z,33.27
2018-11-25T12:25:20.612Z,25.87
2018-11-25T12:27:49.115Z,27.33
2018-11-25T12:30:17.673Z,28.30
2018-11-25T12:32:47.438Z,30.73
2018-11-25T12:35:16.752Z,28.33
2018-11-25T12:37:45.278Z,27.37
2018-11-25T12:40:17.791Z,28.53
2018-11-25T12:42:47.607Z,27.60
2018-11-25T12:45:16.925Z,28.47
2018-11-25T12:47:45.424Z,28.03
2018-11-25T12:50:15.985Z,27.33
2018-11-25T12:52:44.846Z,25.90
2018-11-25T12:55:17.415Z,25.97
2018-11-25T12:57:45.887Z,26.90
2018-11-25T13:00:21.792Z,28.07
2018-11-25T13:02:50.316Z,26.63
2018-11-25T13:05:18.788Z,25.77
2018-11-25T13:07:47.379Z,26.60
2018-11-25T13:10:15.899Z,27.37
2018-11-25T13:12:44.392Z,25.77
2018-11-25T13:15:13.619Z,24.93
2018-11-25T13:17:42.111Z,26.97
2018-11-25T13:20:12.558Z,24.77
2018-11-25T13:22:41.726Z,24.33
2018-11-25T13:25:13.343Z,26.27
2018-11-25T13:27:41.863Z,24.03
2018-11-25T13:30:21.343Z,26.97
2018-11-25T13:32:50.948Z,26.93
2018-11-25T13:35:19.447Z,29.13
2018-11-25T13:37:48.363Z,29.93
2018-11-25T13:40:17.184Z,29.67
2018-11-25T13:42:46.088Z,29.00
2018-11-25T13:45:15.015Z,34.90
2018-11-25T13:47:43.617Z,32.63
2018-11-25T13:50:12.613Z,30.27
2018-11-25T13:52:41.148Z,30.73
2018-11-25T13:55:20.264Z,30.37
2018-11-25T13:57:48.813Z,27.13
2018-11-25T14:00:42.713Z,26.57
2018-11-25T14:03:13.704Z,27.67
2018-11-25T14:05:42.160Z,26.10
2018-11-25T14:08:10.942Z,26.27
2018-11-25T14:10:39.430Z,25.80
2018-11-25T14:13:07.935Z,24.90
2018-11-25T14:15:36.627Z,24.50
2018-11-25T14:18:05.398Z,25.90
2018-11-25T14:20:34.007Z,24.53
2018-11-25T14:23:02.649Z,22.97
2018-11-25T14:25:31.284Z,23.03
2018-11-25T14:28:02.691Z,22.53
2018-11-25T14:30:31.951Z,21.97
2018-11-25T14:33:00.427Z,23.20
2018-11-25T14:35:29.066Z,24.53
2018-11-25T14:37:58.495Z,22.70
2018-11-25T14:40:27.092Z,23.57
2018-11-25T14:42:55.629Z,24.43
2018-11-25T14:45:24.431Z,24.03
2018-11-25T14:47:53.029Z,22.90
2018-11-25T14:50:21.502Z,25.70
2018-11-25T14:52:51.189Z,25.87
2018-11-25T14:55:20.188Z,25.90
2018-11-25T14:57:48.678Z,25.10
2018-11-25T15:00:19.550Z,26.23
2018-11-25T15:02:49.681Z,26.20
2018-11-25T15:05:23.484Z,26.83
2018-11-25T15:07:52.099Z,26.60
2018-11-25T15:10:20.942Z,29.03
2018-11-25T15:12:49.569Z,29.67
2018-11-25T15:15:18.637Z,28.93
2018-11-25T15:17:47.152Z,30.23
2018-11-25T15:20:16.626Z,30.27
2018-11-25T15:22:45.976Z,29.87
2018-11-25T15:25:17.716Z,31.77
2018-11-25T15:27:46.291Z,33.87
2018-11-25T15:30:15.419Z,32.20
2018-11-25T15:32:43.898Z,32.10
2018-11-25T15:35:12.915Z,32.10
2018-11-25T15:37:44.256Z,29.60
2018-11-25T15:40:15.899Z,34.20
2018-11-25T15:42:44.340Z,30.83
2018-11-25T15:45:12.898Z,29.37
2018-11-25T15:47:43.131Z,30.73
2018-11-25T15:50:13.210Z,28.80
2018-11-25T15:52:42.266Z,29.43
2018-11-25T15:55:12.486Z,29.40
2018-11-25T15:57:41.181Z,31.83
2018-11-25T16:00:13.346Z,31.03
2018-11-25T16:02:41.925Z,29.43
2018-11-25T16:05:12.019Z,27.97
2018-11-25T16:07:40.487Z,28.00
2018-11-25T16:10:10.427Z,29.53
2018-11-25T16:12:39.242Z,29.73
2018-11-25T16:15:09.656Z,29.77
2018-11-25T16:17:38.163Z,31.13
2018-11-25T16:20:11.923Z,31.47
2018-11-25T16:22:40.762Z,28.53
2018-11-25T16:27:19.851Z,29.33
2018-11-25T16:29:48.330Z,25.67
2018-11-25T16:32:16.797Z,28.17
2018-11-25T16:34:45.401Z,28.57
2018-11-25T16:37:13.844Z,27.33
2018-11-25T16:39:42.395Z,26.67
2018-11-25T16:42:10.891Z,27.63
2018-11-25T16:44:39.442Z,26.23
2018-11-25T16:47:07.887Z,24.30
2018-11-25T16:49:36.363Z,25.63
2018-11-25T16:52:04.991Z,25.37
2018-11-25T16:54:33.442Z,25.70
2018-11-25T16:57:01.894Z,24.10
2018-11-25T16:59:30.379Z,23.13
2018-11-25T17:01:58.840Z,23.87
2018-11-25T17:04:27.326Z,23.77
2018-11-25T17:06:55.786Z,23.30
2018-11-25T17:09:24.277Z,22.50
2018-11-25T17:11:52.738Z,22.80
2018-11-25T17:14:21.191Z,23.83
2018-11-25T17:16:49.665Z,21.37
2018-11-25T17:19:18.141Z,24.27
2018-11-25T17:21:46.602Z,22.53
2018-11-25T17:24:15.566Z,22.57
2018-11-25T17:26:44.050Z,21.77
2018-11-25T17:29:12.527Z,21.80
2018-11-25T17:31:41.001Z,22.57
2018-11-25T17:34:09.461Z,21.63
2018-11-25T17:36:37.955Z,21.30
2018-11-25T17:39:08.699Z,21.97
2018-11-25T17:41:37.187Z,27.13
2018-11-25T17:44:05.720Z,27.30
2018-11-25T17:46:34.194Z,23.97
2018-11-25T17:49:02.662Z,20.67
2018-11-25T17:51:31.122Z,20.77
2018-11-25T17:53:59.558Z,20.57
2018-11-25T17:56:28.070Z,19.10
2018-11-25T17:58:56.599Z,19.90
2018-11-25T18:01:25.096Z,20.07
2018-11-25T18:03:53.557Z,19.77
2018-11-25T18:06:22.268Z,19.80
2018-11-25T18:08:52.539Z,19.43
2018-11-25T18:11:21.023Z,20.50
2018-11-25T18:13:49.466Z,19.57
2018-11-25T18:16:17.927Z,22.97
2018-11-25T18:18:49.850Z,21.27
2018-11-25T18:21:21.111Z,20.83
2018-11-25T18:23:49.584Z,21.60
2018-11-25T18:26:18.054Z,20.17
2018-11-25T18:28:46.519Z,19.87
2018-11-25T18:31:15.243Z,20.63
2018-11-25T18:33:43.738Z,19.33
2018-11-25T18:36:14.069Z,21.07
2018-11-25T18:38:42.562Z,20.53
2018-11-25T18:41:12.575Z,20.90
2018-11-25T18:43:44.465Z,20.67
2018-11-25T18:46:12.942Z,21.90
2018-11-25T18:48:44.139Z,21.93
2018-11-25T18:51:12.642Z,22.70
2018-11-25T18:53:41.123Z,21.90
2018-11-25T18:56:09.604Z,21.50
2018-11-25T18:58:38.074Z,21.87
2018-11-25T19:01:17.213Z,22.70
2018-11-25T19:03:45.677Z,23.23
2018-11-25T19:06:14.155Z,22.47
2018-11-25T19:08:42.639Z,21.67
2018-11-25T19:11:11.119Z,22.10
2018-11-25T19:13:39.576Z,24.27
2018-11-25T19:16:08.079Z,23.63
2018-11-25T19:18:36.547Z,21.93
2018-11-25T19:21:05.188Z,23.40
2018-11-25T19:23:33.641Z,24.20
2018-11-25T19:26:02.114Z,24.00
2018-11-25T19:28:30.583Z,23.67
2018-11-25T19:30:59.512Z,24.20
2018-11-25T19:33:27.966Z,25.13
2018-11-25T19:35:56.423Z,25.60
2018-11-25T19:38:24.902Z,24.73
2018-11-25T19:40:53.672Z,24.20
2018-11-25T19:43:22.136Z,23.83
2018-11-25T19:45:50.591Z,26.23
2018-11-25T19:48:19.064Z,26.20
2018-11-25T19:50:47.865Z,24.80
2018-11-25T19:53:16.343Z,23.60
2018-11-25T19:55:44.828Z,24.43
2018-11-25T19:58:13.326Z,25.47
2018-11-25T20:00:42.721Z,25.47
2018-11-25T20:03:12.006Z,25.63
2018-11-25T20:05:41.327Z,24.80
2018-11-25T20:08:09.979Z,25.37
2018-11-25T20:10:39.168Z,25.40
2018-11-25T20:13:09.671Z,23.97
2018-11-25T20:15:38.939Z,24.73
2018-11-25T20:18:08.658Z,22.90
2018-11-25T20:20:37.183Z,24.60
2018-11-25T20:23:06.472Z,26.20
2018-11-25T20:25:35.662Z,24.73
2018-11-25T20:28:04.532Z,27.33
2018-11-25T20:30:33.687Z,24.97
2018-11-25T20:33:07.507Z,25.90
2018-11-25T20:35:36.000Z,25.77
2018-11-25T20:38:10.993Z,24.63
2018-11-25T20:40:40.719Z,26.20
2018-11-25T20:43:10.073Z,25.83
2018-11-25T20:45:44.542Z,27.80
2018-11-25T20:48:14.571Z,26.03
2018-11-25T20:50:44.039Z,26.33
2018-11-25T20:53:18.627Z,27.10
2018-11-25T20:55:48.581Z,26.33
2018-11-25T20:58:19.693Z,25.20
2018-11-25T21:00:48.470Z,26.87
2018-11-25T21:03:17.727Z,25.27
2018-11-25T21:05:49.335Z,24.43
2018-11-25T21:08:21.730Z,25.40
2018-11-25T21:10:54.065Z,26.77
2018-11-25T21:13:25.947Z,28.10
2018-11-25T21:15:54.527Z,25.50
2018-11-25T21:18:23.001Z,25.70
2018-11-25T21:20:51.552Z,25.00
2018-11-25T21:23:20.068Z,25.03
2018-11-25T21:25:48.582Z,25.73
2018-11-25T21:28:17.873Z,25.40
2018-11-25T21:30:47.767Z,25.53
2018-11-25T21:33:16.835Z,25.50
2018-11-25T21:35:46.699Z,26.73
2018-11-25T21:38:15.998Z,26.43
2018-11-25T21:40:44.728Z,26.13
2018-11-25T21:43:13.309Z,27.20
2018-11-25T21:45:41.975Z,25.00
2018-11-25T21:48:10.524Z,26.93
2018-11-25T21:50:39.061Z,25.67
2018-11-25T21:53:07.926Z,25.40
2018-11-25T21:55:37.263Z,25.40
2018-11-25T21:58:06.743Z,27.73
2018-11-25T22:00:35.216Z,25.40
2018-11-25T22:03:03.735Z,27.63
2018-11-25T22:05:32.214Z,26.87
2018-11-25T22:08:00.662Z,25.63
2018-11-25T22:10:29.138Z,26.67
2018-11-25T22:12:57.658Z,26.37
2018-11-25T22:15:26.142Z,26.67
2018-11-25T22:17:54.595Z,26.50
2018-11-25T22:20:23.151Z,26.70
2018-11-25T22:22:51.681Z,27.17
2018-11-25T22:25:20.679Z,26.67
2018-11-25T22:27:49.542Z,27.27
2018-11-25T22:30:21.958Z,28.30
2018-11-25T22:32:50.797Z,27.87
2018-11-25T22:35:20.484Z,27.30
2018-11-25T22:37:48.989Z,26.83
2018-11-25T22:40:18.238Z,27.80
2018-11-25T22:42:47.591Z,27.80
2018-11-25T22:45:17.918Z,28.03
2018-11-25T22:47:46.382Z,26.93
2018-11-25T22:50:17.618Z,28.67
2018-11-25T22:52:46.163Z,27.77
2018-11-25T22:55:20.673Z,29.13
2018-11-25T22:57:49.126Z,28.47
2018-11-25T23:00:21.589Z,29.70
2018-11-25T23:02:50.035Z,30.03
2018-11-25T23:05:29.782Z,29.37
2018-11-25T23:07:58.243Z,29.10
2018-11-25T23:10:26.733Z,28.57
2018-11-25T23:12:55.200Z,31.83
2018-11-25T23:15:24.078Z,30.30
2018-11-25T23:17:52.538Z,30.97
2018-11-25T23:20:21.020Z,29.67
2018-11-25T23:22:49.501Z,30.50
2018-11-25T23:25:17.988Z,29.23
2018-11-25T23:27:46.467Z,30.57
2018-11-25T23:30:14.970Z,30.50
2018-11-25T23:32:43.450Z,31.03
2018-11-25T23:35:17.646Z,30.57
2018-11-25T23:37:46.126Z,31.63
2018-11-25T23:40:14.611Z,30.13
2018-11-25T23:42:43.438Z,29.80
2018-11-25T23:45:13.155Z,30.43
2018-11-25T23:47:42.005Z,31.47
2018-11-25T23:50:12.434Z,30.90
2018-11-25T23:52:41.341Z,30.20
2018-11-25T23:55:11.382Z,28.47
2018-11-25T23:57:40.186Z,29.87
